Time;durP1;ratioP1;P1;durP2;ratioP2;P2;SDS_P1;SDS_P2;PMS_P1;PMS_P2;Temp;Humidity;BMP_temperature;BMP_pressure;BME280_temperature;BME280_humidity;BME280_pressure;Samples;Min_cycle;Max_cycle;Signal;HPM_P1;HPM_P2
2023/05/23 00:02:19;;;;;;;15.45;9.48;;;;;;;21.57;72.75;100524.19;5053546;28;20048;-73
2023/05/23 00:04:47;;;;;;;11.43;8.80;;;;;;;21.40;72.75;100515.00;5035716;28;20057;-73
2023/05/23 00:07:15;;;;;;;12.40;9.07;;;;;;;21.44;73.67;100515.09;5053355;28;20048;-73
2023/05/23 00:09:43;;;;;;;13.75;9.13;;;;;;;21.53;73.42;100514.94;5053255;28;20052;-73
2023/05/23 00:12:11;;;;;;;11.35;9.25;;;;;;;21.52;72.65;100518.88;5053297;28;20045;-73
2023/05/23 00:14:39;;;;;;;14.88;9.57;;;;;;;21.53;73.38;100514.94;5053358;28;20049;-73
2023/05/23 00:17:09;;;;;;;13.15;9.65;;;;;;;21.46;73.57;100527.50;5053156;28;20045;-73
2023/05/23 00:19:37;;;;;;;11.20;8.52;;;;;;;21.48;73.63;100514.03;5053053;28;20067;-73
2023/05/23 00:22:05;;;;;;;16.60;9.10;;;;;;;21.34;72.11;100525.59;5052378;28;20052;-73
2023/05/23 00:24:33;;;;;;;12.57;9.35;;;;;;;21.25;72.64;100515.78;5052717;28;20049;-73
2023/05/23 00:27:01;;;;;;;13.00;9.55;;;;;;;21.22;73.88;100522.88;5035061;28;20052;-73
2023/05/23 00:29:28;;;;;;;11.70;8.95;;;;;;;21.35;73.81;100512.47;5052559;28;20052;-73
2023/05/23 00:31:56;;;;;;;12.98;9.40;;;;;;;21.38;73.59;100509.00;5035247;28;20067;-73
2023/05/23 00:34:24;;;;;;;13.25;8.85;;;;;;;21.41;73.34;100524.97;5048180;28;20046;-73
2023/05/23 00:36:53;;;;;;;14.50;8.90;;;;;;;21.43;73.12;100503.16;5015399;28;20049;-73
2023/05/23 00:39:20;;;;;;;12.52;9.70;;;;;;;21.25;73.51;100513.81;5015278;28;20058;-73
2023/05/23 00:41:49;;;;;;;15.02;8.82;;;;;;;21.05;72.47;100508.09;5031505;28;20499;-73
2023/05/23 00:44:20;;;;;;;15.65;9.45;;;;;;;20.96;74.60;100512.19;5015346;28;20046;-73
2023/05/23 00:46:53;;;;;;;12.85;9.63;;;;;;;21.00;74.67;100515.88;5033723;28;20045;-73
2023/05/23 00:49:23;;;;;;;15.30;10.17;;;;;;;20.99;73.89;100515.06;5052566;28;20053;-73
2023/05/23 00:51:51;;;;;;;13.40;9.82;;;;;;;20.92;73.71;100512.88;5052076;28;20407;-73
2023/05/23 00:54:26;;;;;;;11.95;9.15;;;;;;;20.94;74.02;100520.88;5052666;28;20376;-73
2023/05/23 00:56:54;;;;;;;11.98;9.40;;;;;;;20.74;75.28;100515.13;5050724;28;20124;-73
2023/05/23 00:59:24;;;;;;;15.43;9.95;;;;;;;20.84;74.65;100513.00;5034218;28;20392;-73
2023/05/23 01:01:55;;;;;;;13.48;10.15;;;;;;;20.70;76.31;100516.16;5052182;28;20372;-73
2023/05/23 01:04:25;;;;;;;13.43;9.48;;;;;;;20.84;75.00;100499.09;5034652;28;20052;-73
2023/05/23 01:06:54;;;;;;;12.15;9.13;;;;;;;20.92;75.44;100512.88;5052198;28;20052;-73
2023/05/23 01:09:26;;;;;;;15.45;9.90;;;;;;;21.02;75.09;100514.34;5051511;28;20052;-73
2023/05/23 01:12:16;;;;;;;14.35;10.07;;;;;;;21.01;74.88;100509.16;5052185;28;20056;-73
2023/05/23 01:14:54;;;;;;;14.82;10.07;;;;;;;20.92;74.45;100509.31;5033801;28;20056;-73
2023/05/23 01:17:43;;;;;;;17.05;9.45;;;;;;;20.95;74.90;100503.03;5052071;28;20419;-73
2023/05/23 01:20:18;;;;;;;12.60;9.65;;;;;;;20.83;75.65;100508.59;5051591;28;20053;-73
2023/05/23 01:23:10;;;;;;;14.35;9.25;;;;;;;20.89;75.16;100501.66;5034054;28;20048;-73
2023/05/23 01:25:58;;;;;;;13.82;10.32;;;;;;;20.81;74.31;100497.81;5045322;28;20396;-73
2023/05/23 01:28:35;;;;;;;16.00;10.27;;;;;;;20.74;74.46;100501.22;5051882;28;20037;-73
2023/05/23 01:31:06;;;;;;;11.80;9.55;;;;;;;20.51;74.88;100500.91;5050559;28;20049;-73
2023/05/23 01:33:35;;;;;;;13.63;9.68;;;;;;;20.43;74.69;100499.88;5050852;28;20037;-73
2023/05/23 01:36:03;;;;;;;14.52;9.13;;;;;;;20.33;75.92;100497.59;5051922;28;20056;-73
2023/05/23 01:38:31;;;;;;;15.48;10.43;;;;;;;20.57;75.64;100501.50;5051736;28;20041;-72
2023/05/23 01:40:59;;;;;;;13.18;9.05;;;;;;;20.26;75.96;100500.94;5050452;28;20407;-73
2023/05/23 01:43:27;;;;;;;12.95;8.70;;;;;;;20.39;75.92;100505.31;5051478;28;20427;-73
2023/05/23 01:45:57;;;;;;;13.15;8.88;;;;;;;20.39;76.02;100504.53;5050462;28;20480;-73
2023/05/23 01:48:27;;;;;;;11.10;9.00;;;;;;;20.43;76.07;100504.63;5050488;28;20066;-73
2023/05/23 01:50:58;;;;;;;13.52;9.15;;;;;;;20.45;75.43;100502.31;5034336;28;20487;-73
2023/05/23 01:53:27;;;;;;;12.40;8.98;;;;;;;20.39;75.40;100496.97;5050737;28;20044;-73
2023/05/23 01:55:56;;;;;;;12.27;9.90;;;;;;;20.35;75.26;100498.03;5035483;28;20045;-73
2023/05/23 01:58:24;;;;;;;12.20;9.07;;;;;;;20.47;76.19;100497.22;5031922;28;20053;-73
2023/05/23 02:00:52;;;;;;;15.80;10.02;;;;;;;20.49;76.03;100497.66;5014231;28;20076;-73
2023/05/23 02:03:19;;;;;;;13.45;9.63;;;;;;;20.50;76.30;100499.28;5031948;28;20052;-73
2023/05/23 02:05:49;;;;;;;14.68;10.93;;;;;;;20.44;76.16;100504.28;5030716;28;20046;-73
2023/05/23 02:08:17;;;;;;;19.17;11.10;;;;;;;20.41;76.86;100505.78;5047018;28;20053;-73
2023/05/23 02:10:44;;;;;;;15.85;11.52;;;;;;;20.32;76.98;100499.53;5051785;28;20056;-73
2023/05/23 02:13:12;;;;;;;13.30;10.40;;;;;;;20.33;76.72;100509.50;5051678;28;20053;-73
2023/05/23 02:15:40;;;;;;;16.17;10.80;;;;;;;20.20;77.70;100502.31;5033992;28;20037;-73
2023/05/23 02:18:08;;;;;;;18.67;12.35;;;;;;;20.23;77.37;100507.19;5033662;28;20059;-73
2023/05/23 02:20:39;;;;;;;16.77;11.98;;;;;;;20.27;77.81;100506.16;5034023;28;20063;-73
2023/05/23 02:23:08;;;;;;;17.65;11.75;;;;;;;20.16;78.69;100509.72;5051770;28;20041;-73
2023/05/23 02:25:37;;;;;;;16.95;11.65;;;;;;;20.27;78.18;100505.31;5033786;28;20056;-73
2023/05/23 02:28:06;;;;;;;20.58;12.38;;;;;;;20.45;77.83;100507.84;5051621;28;20037;-73
2023/05/23 02:30:34;;;;;;;18.05;11.63;;;;;;;20.43;77.44;100499.88;5051683;28;20510;-73
2023/05/23 02:33:06;;;;;;;16.45;12.05;;;;;;;20.44;77.52;100495.94;5051591;28;20510;-73
2023/05/23 02:35:35;;;;;;;24.35;12.52;;;;;;;20.51;77.65;100496.16;5041952;28;20044;-73
2023/05/23 02:38:03;;;;;;;17.17;12.63;;;;;;;20.19;79.07;100507.06;5013540;28;20054;-73
2023/05/23 02:40:31;;;;;;;19.23;14.38;;;;;;;19.92;79.53;100500.19;5014026;28;20056;-73
2023/05/23 02:42:58;;;;;;;22.25;13.15;;;;;;;19.88;80.25;100503.69;5033025;28;20046;-73
2023/05/23 02:45:26;;;;;;;23.50;13.75;;;;;;;19.91;80.32;100512.47;5035740;28;20049;-73
2023/05/23 02:47:54;;;;;;;20.65;13.95;;;;;;;20.07;80.03;100507.88;5054522;28;20537;-73
2023/05/23 02:50:24;;;;;;;22.42;12.70;;;;;;;19.86;79.25;100503.19;5036323;28;20044;-73
2023/05/23 02:52:52;;;;;;;21.20;12.32;;;;;;;19.88;79.72;100503.69;5035966;28;20522;-73
2023/05/23 02:55:21;;;;;;;17.75;11.88;;;;;;;19.67;81.92;100514.88;5040120;28;20049;-73
2023/05/23 02:57:50;;;;;;;17.65;12.00;;;;;;;19.77;80.19;100502.50;5017704;28;20063;-73
2023/05/23 03:00:18;;;;;;;17.63;11.48;;;;;;;19.86;80.00;100500.41;5035171;28;20050;-73
2023/05/23 03:02:50;;;;;;;13.85;11.27;;;;;;;19.95;80.33;100507.84;5032956;28;20041;-73
2023/05/23 03:05:19;;;;;;;15.82;10.80;;;;;;;19.92;80.19;100503.78;5034751;28;20056;-73
2023/05/23 03:07:47;;;;;;;14.10;10.23;;;;;;;19.82;80.08;100505.06;5034564;28;20041;-74
2023/05/23 03:10:15;;;;;;;12.80;10.23;;;;;;;19.96;79.72;100510.31;5036658;28;20072;-73
2023/05/23 03:12:43;;;;;;;14.25;10.45;;;;;;;19.82;79.95;100496.75;5036838;28;20045;-73
2023/05/23 03:15:11;;;;;;;16.08;10.65;;;;;;;19.79;80.08;100496.63;5036790;28;20041;-73
2023/05/23 03:17:41;;;;;;;14.45;11.13;;;;;;;19.84;80.24;100491.63;5036681;28;20484;-73
2023/05/23 03:20:10;;;;;;;15.13;11.02;;;;;;;19.98;78.43;100496.88;5054416;28;20067;-73
2023/05/23 03:22:40;;;;;;;17.27;10.80;;;;;;;19.79;79.39;100493.84;5036596;28;20049;-73
2023/05/23 03:25:08;;;;;;;19.08;11.45;;;;;;;19.75;79.12;100499.28;5054272;28;20049;-73
2023/05/23 03:27:36;;;;;;;20.15;11.63;;;;;;;19.56;80.45;100495.06;5036436;28;20041;-73
2023/05/23 03:30:05;;;;;;;16.55;11.65;;;;;;;19.78;79.58;100493.03;5036508;28;20056;-73
2023/05/23 03:32:33;;;;;;;16.20;11.93;;;;;;;19.60;79.15;100493.22;5035537;28;20055;-73
2023/05/23 03:35:01;;;;;;;18.38;11.95;;;;;;;19.57;79.99;100493.94;5036259;28;20041;-73
2023/05/23 03:37:29;;;;;;;17.13;11.60;;;;;;;19.71;80.07;100499.13;5036269;28;20390;-73
2023/05/23 03:39:57;;;;;;;16.88;10.85;;;;;;;19.85;79.16;100503.56;5035987;28;20487;-73
2023/05/23 03:42:27;;;;;;;13.68;10.10;;;;;;;19.73;79.43;100504.34;5036237;28;20052;-74
2023/05/23 03:44:55;;;;;;;14.30;10.23;;;;;;;19.72;79.04;100506.31;5036042;28;20041;-73
2023/05/23 03:47:23;;;;;;;12.70;8.98;;;;;;;19.79;78.09;100511.28;5036043;28;20136;-73
2023/05/23 03:49:52;;;;;;;13.30;10.25;;;;;;;19.66;78.34;100513.25;5052558;28;20049;-73
2023/05/23 03:52:20;;;;;;;13.45;9.40;;;;;;;19.65;78.19;100511.63;5053690;28;20055;-73
2023/05/23 03:54:48;;;;;;;12.13;9.00;;;;;;;19.55;78.26;100521.19;5051904;28;20052;-73
2023/05/23 03:57:18;;;;;;;12.73;9.00;;;;;;;19.28;77.74;100515.13;5052635;28;20492;-73
2023/05/23 03:59:46;;;;;;;12.90;8.82;;;;;;;19.30;78.10;100517.53;5032543;28;20048;-73
2023/05/23 04:02:14;;;;;;;12.23;9.00;;;;;;;19.46;78.26;100510.19;5031892;28;20053;-73
2023/05/23 04:04:42;;;;;;;13.55;9.18;;;;;;;19.48;76.46;100507.06;5028602;28;20041;-73
2023/05/23 04:07:10;;;;;;;13.98;8.82;;;;;;;19.56;76.10;100516.47;5053630;28;20048;-73
2023/05/23 04:09:41;;;;;;;13.70;8.30;;;;;;;19.74;75.91;100515.13;5019231;28;20175;-73
2023/05/23 04:12:10;;;;;;;9.35;7.82;;;;;;;19.84;75.29;100519.41;5052349;28;20045;-73
2023/05/23 04:14:39;;;;;;;15.80;8.43;;;;;;;19.72;75.60;100511.88;5035555;28;20041;-73
2023/05/23 04:17:08;;;;;;;9.50;7.78;;;;;;;19.82;75.58;100516.19;5035341;28;20044;-73
2023/05/23 04:19:36;;;;;;;11.73;7.75;;;;;;;19.84;75.76;100501.94;5035347;28;20479;-73
2023/05/23 04:22:05;;;;;;;11.38;8.10;;;;;;;19.66;74.51;100504.09;5035473;28;20037;-73
2023/05/23 04:24:34;;;;;;;12.40;8.23;;;;;;;19.68;75.49;100512.91;5035342;28;20072;-73
2023/05/23 04:27:02;;;;;;;12.35;7.80;;;;;;;19.73;75.00;100516.28;5053124;28;20041;-73
2023/05/23 04:29:33;;;;;;;10.98;7.53;;;;;;;19.76;75.62;100513.94;5021606;28;20053;-73
2023/05/23 04:32:01;;;;;;;94.63;12.43;;;;;;;19.73;75.69;100515.44;5015629;28;20053;-73
2023/05/23 04:34:30;;;;;;;31.73;7.88;;;;;;;19.47;75.14;100511.00;5031919;28;20045;-74
2023/05/23 04:37:01;;;;;;;39.22;8.95;;;;;;;19.64;75.00;100515.56;5015191;28;20052;-73
2023/05/23 04:39:31;;;;;;;13.77;7.05;;;;;;;19.67;74.09;100517.66;5031884;28;20061;-73
2023/05/23 04:42:23;;;;;;;27.83;8.43;;;;;;;19.91;74.37;100512.47;5015309;28;20049;-73
2023/05/23 04:45:02;;;;;;;19.30;7.00;;;;;;;20.03;73.38;100526.41;5015393;28;20053;-73
2023/05/23 04:48:08;;;;;;;7.10;5.43;;;;;;;20.08;72.96;100512.28;4971856;28;20061;-73
2023/05/23 04:50:41;;;;;;;13.15;6.72;;;;;;;20.07;73.51;100512.63;4955946;28;20047;-73
2023/05/23 04:53:09;;;;;;;10.07;6.40;;;;;;;20.13;72.70;100514.00;5013856;28;20491;-73
2023/05/23 04:55:38;;;;;;;13.57;6.80;;;;;;;20.23;72.98;100509.97;5034901;28;20045;-74
2023/05/23 04:58:11;;;;;;;9.50;6.40;;;;;;;20.19;71.18;100506.28;5034720;28;20511;-73
2023/05/23 05:00:40;;;;;;;7.40;6.10;;;;;;;19.95;72.63;100514.19;5034268;28;20041;-73
2023/05/23 05:03:08;;;;;;;8.07;6.03;;;;;;;20.06;72.43;100513.78;5034561;28;20052;-73
2023/05/23 05:05:41;;;;;;;10.13;5.88;;;;;;;19.91;71.96;100521.63;5034503;28;20510;-72
2023/05/23 05:08:09;;;;;;;11.38;6.03;;;;;;;19.82;72.65;100513.41;5033735;28;20395;-72
2023/05/23 05:10:39;;;;;;;7.40;6.47;;;;;;;19.84;73.64;100507.50;5033582;28;20030;-72
2023/05/23 05:13:08;;;;;;;8.55;6.28;;;;;;;19.86;74.50;100517.09;5029758;28;20111;-72
2023/05/23 05:15:44;;;;;;;8.35;6.70;;;;;;;20.00;72.86;100519.56;5034571;28;20111;-72
2023/05/23 05:18:12;;;;;;;7.65;6.18;;;;;;;19.99;73.50;100519.94;5034050;28;20060;-73
2023/05/23 05:20:41;;;;;;;9.02;6.65;;;;;;;20.03;72.81;100515.28;5025977;28;20484;-72
2023/05/23 05:23:10;;;;;;;8.57;6.00;;;;;;;20.25;73.93;100514.00;5045325;28;20040;-72
2023/05/23 05:25:40;;;;;;;15.63;8.50;;;;;;;20.47;72.98;100513.91;5032896;28;20040;-73
2023/05/23 05:28:09;;;;;;;15.32;9.55;;;;;;;20.43;73.02;100510.19;5050496;28;20033;-73
2023/05/23 05:30:42;;;;;;;14.90;9.30;;;;;;;20.50;73.80;100513.19;5032806;28;20403;-73
2023/05/23 05:33:10;;;;;;;14.07;8.65;;;;;;;20.76;71.68;100511.97;5033676;28;20044;-73
2023/05/23 05:35:39;;;;;;;11.02;6.75;;;;;;;20.89;70.00;100510.81;5029413;28;20076;-73
2023/05/23 05:38:07;;;;;;;13.40;6.97;;;;;;;21.05;69.80;100510.06;5042390;28;20052;-73
2023/05/23 05:40:35;;;;;;;10.90;7.93;;;;;;;21.00;68.99;100518.66;5051542;28;20056;-73
2023/05/23 05:43:03;;;;;;;9.73;6.50;;;;;;;21.12;69.43;100518.59;5029151;28;20032;-73
2023/05/23 05:45:32;;;;;;;11.93;7.60;;;;;;;21.08;68.30;100512.16;5042920;28;20044;-75
2023/05/23 05:48:00;;;;;;;11.75;7.25;;;;;;;21.26;69.04;100512.63;5031970;28;20046;-88
2023/05/23 05:50:29;;;;;;;12.43;7.78;;;;;;;21.34;68.24;100508.06;5034408;28;20045;-91
2023/05/23 05:52:57;;;;;;;9.50;6.60;;;;;;;21.35;68.00;100498.56;5017381;28;20061;-86
2023/05/23 05:55:24;;;;;;;13.38;6.93;;;;;;;21.50;67.67;100512.88;5033640;28;20048;-87
2023/05/23 05:57:54;;;;;;;14.63;6.57;;;;;;;21.54;67.78;100510.97;5024224;28;20040;-86
2023/05/23 06:00:24;;;;;;;13.70;6.80;;;;;;;21.53;68.04;100510.19;5034623;28;20056;-87
2023/05/23 06:02:58;;;;;;;17.38;6.75;;;;;;;21.57;68.75;100507.50;5033908;28;20037;-87
2023/05/23 06:05:38;;;;;;;11.13;7.07;;;;;;;21.74;68.30;100509.16;5031243;28;20041;-87
2023/05/23 06:08:07;;;;;;;11.00;6.72;;;;;;;21.79;68.49;100510.88;5051617;28;20041;-88
2023/05/23 06:10:38;;;;;;;11.90;6.25;;;;;;;21.90;67.67;100511.97;5032500;28;20048;-87
2023/05/23 06:13:06;;;;;;;10.05;6.90;;;;;;;22.04;67.79;100513.47;5046079;28;20045;-87
2023/05/23 06:15:36;;;;;;;11.68;6.70;;;;;;;21.99;67.67;100509.78;5032124;28;20045;-88
2023/05/23 06:18:04;;;;;;;10.73;7.25;;;;;;;22.14;68.47;100515.72;5032311;28;20107;-87
2023/05/23 06:20:32;;;;;;;9.52;6.43;;;;;;;22.20;67.93;100513.44;5037181;28;20111;-87
2023/05/23 06:23:04;;;;;;;7.88;5.97;;;;;;;22.24;67.57;100517.94;5020938;28;20055;-87
2023/05/23 06:25:32;;;;;;;10.63;6.82;;;;;;;22.38;67.29;100522.25;5054069;28;20044;-88
2023/05/23 06:28:00;;;;;;;10.82;6.63;;;;;;;22.42;67.46;100523.13;5036726;28;20060;-87
2023/05/23 06:30:30;;;;;;;13.68;6.45;;;;;;;22.49;67.56;100517.69;5037120;28;20048;-87
2023/05/23 06:32:58;;;;;;;9.65;5.88;;;;;;;22.60;67.42;100519.97;5050940;28;20496;-87
2023/05/23 06:35:26;;;;;;;8.63;6.55;;;;;;;22.72;67.33;100522.63;5036854;28;20076;-87
2023/05/23 06:37:54;;;;;;;10.20;6.20;;;;;;;22.77;67.92;100525.13;5036963;28;20049;-87
2023/05/23 06:40:22;;;;;;;10.27;6.60;;;;;;;22.77;67.49;100518.75;5037156;28;20448;-86
2023/05/23 06:42:51;;;;;;;10.75;6.55;;;;;;;22.92;66.87;100520.66;5052240;28;20041;-81
2023/05/23 06:45:46;;;;;;;11.35;6.88;;;;;;;23.35;64.54;100519.94;5035679;28;20041;-85
2023/05/23 06:48:15;;;;;;;10.63;6.28;;;;;;;23.75;62.80;100527.06;5048990;28;20045;-84
2023/05/23 06:50:46;;;;;;;8.75;5.95;;;;;;;24.16;61.94;100520.97;5000083;28;20488;-81
2023/05/23 06:53:17;;;;;;;9.35;6.85;;;;;;;24.37;60.75;100516.91;5022178;28;20060;-82
2023/05/23 06:55:47;;;;;;;6.97;6.05;;;;;;;24.56;58.28;100515.97;5036010;28;20064;-82
2023/05/23 06:58:18;;;;;;;8.85;6.22;;;;;;;24.47;57.68;100517.41;5053016;28;20045;-82
2023/05/23 07:00:46;;;;;;;7.70;5.75;;;;;;;24.89;57.92;100516.44;5053019;28;20044;-83
2023/05/23 07:03:22;;;;;;;12.73;5.95;;;;;;;25.16;55.41;100516.34;5036316;28;20048;-83
2023/05/23 07:05:51;;;;;;;9.02;6.47;;;;;;;25.05;56.61;100510.63;5034880;28;20045;-82
2023/05/23 07:08:22;;;;;;;7.85;6.03;;;;;;;25.28;56.86;100501.28;5034900;28;20550;-83
2023/05/23 07:11:00;;;;;;;10.52;5.90;;;;;;;25.29;55.00;100502.06;5034035;28;20037;-82
2023/05/23 07:13:32;;;;;;;12.40;7.05;;;;;;;25.42;55.03;100511.81;5034960;28;20087;-82
2023/05/23 07:16:00;;;;;;;12.32;6.95;;;;;;;25.39;54.04;100507.00;5051070;28;20045;-82
2023/05/23 07:18:28;;;;;;;9.60;5.93;;;;;;;25.57;54.35;100512.00;5035642;28;20049;-86
2023/05/23 07:20:57;;;;;;;10.73;6.25;;;;;;;25.67;55.01;100500.09;5051558;28;20048;-85
2023/05/23 07:23:25;;;;;;;12.05;7.03;;;;;;;25.79;54.21;100492.59;5052327;28;20037;-85
2023/05/23 07:25:53;;;;;;;11.98;6.70;;;;;;;25.69;50.60;100496.88;5035516;28;20478;-85
2023/05/23 07:28:29;;;;;;;11.63;6.15;;;;;;;25.86;53.09;100496.25;5036242;28;20037;-86
2023/05/23 07:30:57;;;;;;;14.25;6.45;;;;;;;25.98;51.25;100505.53;5035348;28;20052;-89
2023/05/23 07:33:26;;;;;;;8.23;5.90;;;;;;;25.93;51.95;100497.50;5035551;28;20053;-83
2023/05/23 07:35:59;;;;;;;16.73;6.68;;;;;;;26.08;51.49;100501.22;5004162;28;20044;-83
2023/05/23 07:38:28;;;;;;;9.13;6.07;;;;;;;26.30;50.93;100503.00;5052709;28;20045;-84
2023/05/23 07:40:56;;;;;;;16.10;6.07;;;;;;;26.32;50.61;100507.41;5034570;28;20067;-82
2023/05/23 07:43:39;;;;;;;9.50;6.57;;;;;;;26.46;51.17;100510.31;5034568;28;20045;-85
2023/05/23 07:46:07;;;;;;;9.57;6.68;;;;;;;26.44;50.48;100495.88;5034609;28;20056;-86
2023/05/23 07:48:37;;;;;;;14.43;6.28;;;;;;;26.69;49.86;100506.44;5035097;28;20052;-85
2023/05/23 07:51:05;;;;;;;9.27;6.05;;;;;;;26.70;49.49;100494.00;5034256;28;20056;-83
2023/05/23 07:53:33;;;;;;;9.23;6.55;;;;;;;26.55;50.60;100491.13;5034523;28;20060;-85
2023/05/23 07:56:03;;;;;;;12.77;7.68;;;;;;;26.50;51.55;100488.72;5031640;28;20045;-85
2023/05/23 07:58:36;;;;;;;13.27;9.15;;;;;;;26.55;53.42;100495.94;5018615;28;20052;-84
2023/05/23 08:01:04;;;;;;;15.30;9.23;;;;;;;26.74;53.38;100489.22;5034701;28;20489;-80
2023/05/23 08:03:56;;;;;;;16.95;10.48;;;;;;;26.41;54.46;100497.47;5034225;28;20053;-80
2023/05/23 08:06:31;;;;;;;20.42;12.00;;;;;;;26.28;55.40;100499.78;5035002;28;20045;-79
2023/05/23 08:09:05;;;;;;;28.10;13.57;;;;;;;26.19;55.72;100496.47;5034260;28;20041;-84
2023/05/23 08:11:37;;;;;;;23.13;14.05;;;;;;;26.00;57.17;100487.13;5034787;28;20121;-81
2023/05/23 08:14:06;;;;;;;25.00;14.25;;;;;;;25.99;57.49;100488.34;5030283;28;20206;-79
2023/05/23 08:16:37;;;;;;;27.08;14.88;;;;;;;26.14;56.62;100494.03;5052767;28;20045;-79
2023/05/23 08:19:14;;;;;;;22.60;14.27;;;;;;;26.07;56.28;100494.81;5033760;28;20466;-79
2023/05/23 08:21:44;;;;;;;20.02;12.73;;;;;;;26.14;59.28;100494.03;5023589;28;20071;-80
2023/05/23 08:24:12;;;;;;;20.42;14.00;;;;;;;26.12;56.62;100500.06;5027030;28;20045;-78
2023/05/23 08:26:42;;;;;;;22.67;15.38;;;;;;;25.95;57.12;100504.31;5016728;28;20056;-81
2023/05/23 08:29:13;;;;;;;23.65;14.15;;;;;;;26.01;57.67;100493.56;5031413;28;20052;-79
2023/05/23 08:31:42;;;;;;;25.20;14.45;;;;;;;26.05;58.78;100496.38;5014309;28;20044;-81
2023/05/23 08:34:13;;;;;;;23.10;14.40;;;;;;;26.15;58.06;100502.06;5029603;28;20413;-77
2023/05/23 08:36:42;;;;;;;21.88;14.18;;;;;;;26.37;58.02;100502.25;5034658;28;20045;-80
2023/05/23 08:39:15;;;;;;;20.57;13.53;;;;;;;26.39;56.42;100510.28;5034478;28;20380;-78
2023/05/23 08:41:55;;;;;;;21.98;14.57;;;;;;;26.43;56.53;100494.25;5049204;28;20041;-80
2023/05/23 08:44:23;;;;;;;22.25;15.02;;;;;;;26.59;56.13;100495.97;5030219;28;20388;-80
2023/05/23 08:47:01;;;;;;;19.42;14.02;;;;;;;26.61;55.94;100502.78;5033607;28;20376;-82
2023/05/23 08:49:46;;;;;;;22.88;13.50;;;;;;;26.67;55.34;100506.00;5052298;28;20049;-77
2023/05/23 08:52:20;;;;;;;29.63;14.68;;;;;;;26.69;55.40;100495.22;5049558;28;20044;-78
2023/05/23 08:54:55;;;;;;;29.15;14.45;;;;;;;26.84;55.56;100491.25;5033574;28;20044;-77
2023/05/23 08:57:24;;;;;;;24.45;14.02;;;;;;;26.69;54.24;100490.38;5033775;28;20041;-79
2023/05/23 08:59:59;;;;;;;18.55;12.88;;;;;;;26.80;54.58;100493.25;5047839;28;20040;-79
2023/05/23 09:02:28;;;;;;;18.27;13.25;;;;;;;26.72;53.90;100493.63;5050716;28;20049;-79
2023/05/23 09:05:08;;;;;;;19.10;13.43;;;;;;;26.83;53.95;100486.03;5045908;28;20060;-77
2023/05/23 09:07:38;;;;;;;22.52;13.30;;;;;;;26.86;54.01;100487.25;5033250;28;20052;-77
2023/05/23 09:10:08;;;;;;;20.13;12.85;;;;;;;26.95;53.84;100488.53;5049149;28;20041;-79
2023/05/23 09:12:36;;;;;;;20.27;14.18;;;;;;;27.15;53.75;100493.00;5033603;28;20051;-77
2023/05/23 09:15:09;;;;;;;16.20;11.93;;;;;;;27.08;50.79;100494.56;5033639;28;20044;-79
2023/05/23 09:17:38;;;;;;;17.27;11.48;;;;;;;27.14;49.72;100480.97;5034176;28;20054;-78
2023/05/23 09:20:15;;;;;;;20.15;13.90;;;;;;;27.04;50.50;100490.16;5032521;28;20052;-77
2023/05/23 09:22:49;;;;;;;16.38;12.80;;;;;;;27.27;53.50;100483.41;5030279;28;20081;-82
2023/05/23 09:25:18;;;;;;;17.95;12.70;;;;;;;27.25;51.33;100492.22;5049870;28;20041;-75
2023/05/23 09:27:47;;;;;;;22.00;12.95;;;;;;;27.43;49.48;100494.25;5032936;28;20045;-76
2023/05/23 09:30:17;;;;;;;16.05;9.35;;;;;;;27.54;48.16;100491.47;5028475;28;20072;-70
2023/05/23 09:33:02;;;;;;;15.15;8.10;;;;;;;27.77;45.33;100499.56;5032640;28;20063;-73
2023/05/23 09:35:33;;;;;;;12.07;8.57;;;;;;;27.93;46.62;100489.88;5032016;28;20048;-73
2023/05/23 09:38:01;;;;;;;13.48;8.65;;;;;;;27.98;46.39;100487.50;5030717;28;20507;-74
2023/05/23 09:40:31;;;;;;;11.57;8.55;;;;;;;28.12;45.67;100494.31;5012662;28;20058;-72
2023/05/23 09:43:03;;;;;;;14.35;9.43;;;;;;;28.04;45.73;100493.50;5029292;28;20053;-72
2023/05/23 09:45:31;;;;;;;10.52;8.55;;;;;;;28.20;46.21;100486.66;5031341;28;20060;-72
2023/05/23 09:48:01;;;;;;;12.07;9.70;;;;;;;28.08;47.38;100485.88;5045954;28;20034;-72
2023/05/23 09:50:32;;;;;;;13.43;9.18;;;;;;;28.22;44.17;100484.22;5029727;28;20060;-72
2023/05/23 09:53:02;;;;;;;12.32;7.40;;;;;;;28.16;42.30;100486.66;5024314;28;20412;-78
2023/05/23 09:55:30;;;;;;;12.82;8.43;;;;;;;28.34;42.51;100481.03;5008596;28;20057;-78
2023/05/23 09:57:58;;;;;;;10.10;6.95;;;;;;;28.36;42.73;100480.63;5034700;28;20049;-77
2023/05/23 10:00:27;;;;;;;8.85;6.85;;;;;;;28.42;42.43;100487.44;5035131;28;20048;-79
2023/05/23 10:03:12;;;;;;;12.35;8.07;;;;;;;28.39;46.44;100482.63;5034782;28;20042;-79
2023/05/23 10:05:46;;;;;;;12.68;6.97;;;;;;;28.31;41.70;100481.84;5034980;28;20056;-78
2023/05/23 10:08:55;;;;;;;7.28;5.95;;;;;;;28.33;40.59;100485.03;5033646;28;20479;-78
2023/05/23 10:11:35;;;;;;;8.00;6.15;;;;;;;28.46;42.24;100482.63;5025387;28;20053;-79
2023/05/23 10:14:08;;;;;;;10.73;6.05;;;;;;;28.22;40.88;100472.97;5029611;28;20045;-79
2023/05/23 10:16:42;;;;;;;5.68;5.07;;;;;;;28.30;41.79;100474.63;5035022;28;20060;-79
2023/05/23 10:19:26;;;;;;;7.75;5.63;;;;;;;28.58;41.52;100472.91;5034401;28;20048;-78
2023/05/23 10:21:59;;;;;;;7.35;6.05;;;;;;;28.89;41.22;100481.69;5022323;28;20050;-77
2023/05/23 10:24:32;;;;;;;9.02;5.20;;;;;;;28.93;40.14;100473.22;5015132;28;20054;-78
2023/05/23 10:27:02;;;;;;;8.70;5.57;;;;;;;28.92;42.02;100468.75;5042491;28;20045;-79
2023/05/23 10:29:32;;;;;;;7.53;5.57;;;;;;;28.90;40.18;100472.00;5034061;28;20487;-79
2023/05/23 10:32:01;;;;;;;8.60;5.80;;;;;;;29.02;38.20;100462.28;5031746;28;20053;-79
2023/05/23 10:34:51;;;;;;;7.53;5.80;;;;;;;29.08;40.17;100471.91;5034127;28;20499;-79
2023/05/23 10:37:32;;;;;;;11.27;6.43;;;;;;;28.93;39.76;100468.38;5034575;28;20404;-79
2023/05/23 10:40:06;;;;;;;6.13;5.50;;;;;;;28.90;38.06;100472.00;5035934;28;20057;-79
2023/05/23 10:43:06;;;;;;;8.18;5.60;;;;;;;28.95;40.46;100462.31;5054639;28;20053;-79
2023/05/23 10:45:41;;;;;;;9.25;5.75;;;;;;;28.88;40.06;100456.75;5052639;28;20049;-79
2023/05/23 10:48:21;;;;;;;7.20;5.50;;;;;;;29.00;40.79;100458.28;5052657;28;20045;-80
2023/05/23 10:51:13;;;;;;;9.07;5.80;;;;;;;29.24;39.73;100457.31;5044973;28;20049;-79
2023/05/23 10:53:42;;;;;;;6.28;5.63;;;;;;;29.31;41.33;100448.00;5050836;28;20040;-82
2023/05/23 10:56:22;;;;;;;10.00;6.18;;;;;;;29.48;41.55;100451.16;5042394;28;20037;-79
2023/05/23 10:58:55;;;;;;;10.48;6.70;;;;;;;29.59;40.12;100451.06;5054298;28;20041;-79
2023/05/23 11:01:24;;;;;;;7.75;5.97;;;;;;;29.71;40.09;100444.91;5035230;28;20479;-81
2023/05/23 11:03:55;;;;;;;8.73;6.47;;;;;;;29.82;38.68;100444.84;5032400;28;20042;-80
2023/05/23 11:06:44;;;;;;;13.48;8.80;;;;;;;29.49;38.95;100449.94;5031984;28;20043;-81
2023/05/23 11:09:20;;;;;;;7.03;6.00;;;;;;;29.68;39.47;100440.13;5049037;28;20056;-77
2023/05/23 11:12:01;;;;;;;8.48;5.38;;;;;;;29.76;41.20;100440.84;5053050;28;20045;-77
2023/05/23 11:14:32;;;;;;;7.28;5.60;;;;;;;29.82;37.43;100444.03;5052787;28;20484;-76
2023/05/23 11:17:15;;;;;;;6.43;5.03;;;;;;;29.70;39.21;100437.66;5035524;28;20049;-76
2023/05/23 11:19:58;;;;;;;6.90;5.43;;;;;;;29.59;37.13;100428.50;5052762;28;20041;-77
2023/05/23 11:22:28;;;;;;;6.45;5.10;;;;;;;29.69;37.76;100430.44;5035246;28;20503;-80
2023/05/23 11:24:57;;;;;;;6.05;4.68;;;;;;;29.94;37.69;100428.56;5050482;28;20044;-82
2023/05/23 11:27:34;;;;;;;6.93;5.03;;;;;;;30.04;37.82;100433.31;5025779;28;20041;-79
2023/05/23 11:30:08;;;;;;;6.63;5.00;;;;;;;30.18;35.14;100429.56;5033209;28;20566;-77
2023/05/23 11:32:37;;;;;;;8.27;4.25;;;;;;;30.22;33.26;100432.34;5038700;28;20044;-80
2023/05/23 11:35:10;;;;;;;4.97;4.47;;;;;;;30.16;37.11;100440.50;5052829;28;20403;-78
2023/05/23 11:37:38;;;;;;;6.97;5.18;;;;;;;30.09;36.17;100434.91;5035927;28;20495;-92